Time;durP1;ratioP1;P1;durP2;ratioP2;P2;SDS_P1;SDS_P2;PMS_P1;PMS_P2;Temp;Humidity;BMP_temperature;BMP_pressure;BME280_temperature;BME280_humidity;BME280_pressure;Samples;Min_cycle;Max_cycle;Signal;HPM_P1;HPM_P2
2022/01/11 00:00:57;;;;;;;14.00;8.32;;;10.60;99.90;;;;;;5068985;28;20016;-76
2022/01/11 00:03:24;;;;;;;14.98;8.88;;;10.70;99.90;;;;;;5068176;28;20023;-76
2022/01/11 00:05:57;;;;;;;13.68;8.43;;;10.70;99.90;;;;;;5085462;28;20013;-77
2022/01/11 00:08:30;;;;;;;18.70;9.10;;;10.50;99.90;;;;;;5085665;28;20032;-76
2022/01/11 00:11:03;;;;;;;13.88;9.10;;;10.50;99.90;;;;;;5085542;28;20016;-75
2022/01/11 00:13:35;;;;;;;16.77;9.63;;;10.50;99.90;;;;;;5086611;28;20027;-75
2022/01/11 00:16:01;;;;;;;15.75;9.00;;;10.40;99.90;;;;;;5103642;28;20027;-75
2022/01/11 00:18:27;;;;;;;17.05;10.02;;;10.40;99.90;;;;;;5085449;28;20028;-79
2022/01/11 00:20:53;;;;;;;18.83;10.57;;;10.30;99.90;;;;;;5085802;28;20095;-75
2022/01/11 00:26:06;;;;;;;15.73;9.25;;;10.30;99.90;;;;;;5087191;28;20192;-76
2022/01/11 00:28:32;;;;;;;15.32;9.25;;;10.40;99.90;;;;;;5103435;28;20035;-75
2022/01/11 00:30:58;;;;;;;14.43;8.60;;;10.50;99.90;;;;;;5092964;28;20020;-76
2022/01/11 00:33:34;;;;;;;16.13;8.93;;;10.60;99.90;;;;;;5101738;28;20027;-74
2022/01/11 00:36:00;;;;;;;15.80;9.23;;;10.50;99.90;;;;;;5102095;28;20020;-74
2022/01/11 00:38:33;;;;;;;15.63;9.43;;;10.50;99.90;;;;;;5102359;28;20027;-76
2022/01/11 00:41:01;;;;;;;14.98;9.50;;;10.40;99.90;;;;;;5085440;28;20047;-75
2022/01/11 00:43:29;;;;;;;15.27;9.60;;;10.40;99.90;;;;;;5102627;28;20043;-75
2022/01/11 00:45:57;;;;;;;18.45;10.35;;;10.40;99.90;;;;;;5088208;28;20023;-77
2022/01/11 00:48:23;;;;;;;19.15;11.02;;;10.20;99.90;;;;;;5068389;28;20019;-76
2022/01/11 00:50:50;;;;;;;19.20;10.00;;;10.30;99.90;;;;;;5103329;28;20023;-76
2022/01/11 00:53:16;;;;;;;18.27;9.73;;;10.30;99.90;;;;;;5085247;28;20249;-76
2022/01/11 00:55:42;;;;;;;17.55;9.90;;;10.20;99.90;;;;;;5085218;28;20049;-76
2022/01/11 00:58:08;;;;;;;27.30;13.20;;;10.20;99.90;;;;;;5102976;28;20016;-77
2022/01/11 01:00:36;;;;;;;20.30;10.40;;;10.20;99.90;;;;;;5102981;28;20016;-75
2022/01/11 01:03:02;;;;;;;19.33;10.25;;;10.10;99.90;;;;;;5085013;28;20326;-75
2022/01/11 01:05:29;;;;;;;20.70;10.70;;;10.10;99.90;;;;;;5103128;28;20027;-77
2022/01/11 01:07:55;;;;;;;18.27;10.70;;;10.20;99.90;;;;;;5084867;28;20299;-76
2022/01/11 01:10:35;;;;;;;22.67;10.52;;;10.20;99.90;;;;;;5101854;28;20200;-75
2022/01/11 01:13:05;;;;;;;19.90;10.88;;;10.20;99.90;;;;;;5102298;28;20027;-77
2022/01/11 01:15:31;;;;;;;20.73;11.85;;;10.10;99.90;;;;;;5088729;28;20028;-76
2022/01/11 01:17:56;;;;;;;23.45;11.20;;;10.10;99.90;;;;;;5106234;28;20023;-78
2022/01/11 01:20:22;;;;;;;22.30;9.70;;;10.20;99.90;;;;;;5106623;28;20039;-75
2022/01/11 01:22:50;;;;;;;21.45;12.40;;;10.20;99.90;;;;;;5071415;28;20027;-75
2022/01/11 01:25:20;;;;;;;21.35;11.43;;;10.20;99.90;;;;;;5106432;28;20061;-76
2022/01/11 01:27:47;;;;;;;19.70;9.73;;;10.20;99.90;;;;;;5086815;28;20027;-76
2022/01/11 01:30:13;;;;;;;21.85;9.93;;;10.20;99.90;;;;;;5106464;28;20043;-75
2022/01/11 01:32:39;;;;;;;19.45;10.23;;;10.20;99.90;;;;;;5088242;28;20030;-76
2022/01/11 01:35:05;;;;;;;17.38;10.35;;;10.20;99.90;;;;;;5088340;28;20043;-75
2022/01/11 01:37:31;;;;;;;21.77;11.20;;;10.20;99.90;;;;;;5105733;28;20040;-76
2022/01/11 01:39:58;;;;;;;20.50;11.75;;;10.20;99.90;;;;;;5071545;28;20058;-76
2022/01/11 01:42:28;;;;;;;18.77;10.63;;;10.20;99.90;;;;;;5087951;28;20215;-76
2022/01/11 01:44:54;;;;;;;18.45;10.40;;;10.30;99.90;;;;;;5084610;28;20059;-76
2022/01/11 01:47:20;;;;;;;21.80;11.88;;;10.40;99.90;;;;;;5085448;28;20084;-78
2022/01/11 01:49:47;;;;;;;21.67;10.88;;;10.40;99.90;;;;;;5067963;28;20063;-76
2022/01/11 01:52:14;;;;;;;18.83;10.80;;;10.40;99.90;;;;;;5085571;28;20319;-76
2022/01/11 01:54:41;;;;;;;16.77;10.48;;;10.40;99.90;;;;;;5084509;28;20044;-77
2022/01/11 01:57:08;;;;;;;20.08;9.60;;;10.50;99.90;;;;;;5067925;28;20234;-77
2022/01/11 01:59:34;;;;;;;15.95;9.65;;;10.50;99.90;;;;;;5085748;28;20020;-76
2022/01/11 02:02:00;;;;;;;17.10;9.13;;;10.50;99.90;;;;;;5067665;28;20044;-76
2022/01/11 02:04:26;;;;;;;21.77;11.38;;;10.40;99.90;;;;;;5084347;28;20020;-77
2022/01/11 02:06:52;;;;;;;18.30;10.82;;;10.40;99.90;;;;;;5084300;28;20050;-77
2022/01/11 02:09:18;;;;;;;17.73;9.88;;;10.40;99.90;;;;;;5084162;28;20212;-76
2022/01/11 02:11:46;;;;;;;16.90;9.48;;;10.50;99.90;;;;;;5085514;28;20081;-76
2022/01/11 02:14:11;;;;;;;19.77;10.10;;;10.50;99.90;;;;;;5085614;28;20020;-78
2022/01/11 02:16:37;;;;;;;15.10;8.88;;;10.50;99.90;;;;;;5095510;28;20082;-76
2022/01/11 02:19:03;;;;;;;17.02;9.05;;;10.50;99.90;;;;;;5116147;28;20088;-76
2022/01/11 02:21:29;;;;;;;17.60;9.10;;;10.40;99.90;;;;;;5098228;28;20016;-75
2022/01/11 02:23:56;;;;;;;17.38;9.80;;;10.40;99.90;;;;;;5098258;28;20024;-75
2022/01/11 02:26:24;;;;;;;19.77;10.30;;;10.40;99.90;;;;;;5096678;28;20031;-76
2022/01/11 02:28:51;;;;;;;20.38;8.88;;;10.50;99.90;;;;;;5094407;28;20031;-77
2022/01/11 02:31:17;;;;;;;14.18;8.93;;;10.50;99.90;;;;;;5109920;28;20031;-77
2022/01/11 02:33:46;;;;;;;17.13;9.82;;;10.50;99.90;;;;;;5072382;28;20100;-76
2022/01/11 02:36:18;;;;;;;17.55;9.15;;;10.40;99.90;;;;;;5083757;28;20033;-78
2022/01/11 02:38:46;;;;;;;18.10;9.05;;;10.50;99.90;;;;;;5084357;28;20020;-77
2022/01/11 02:41:11;;;;;;;15.02;9.32;;;10.50;99.90;;;;;;5083392;28;20024;-76
2022/01/11 02:43:42;;;;;;;15.98;8.23;;;10.50;99.90;;;;;;5086576;28;20070;-77
2022/01/11 02:46:08;;;;;;;17.83;8.50;;;10.60;99.90;;;;;;5105037;28;20031;-76
2022/01/11 02:48:34;;;;;;;18.02;8.85;;;10.60;99.90;;;;;;5086838;28;20020;-75
2022/01/11 02:50:59;;;;;;;17.40;8.30;;;10.50;99.90;;;;;;5105265;28;20058;-78
2022/01/11 02:53:25;;;;;;;17.40;8.75;;;10.60;99.90;;;;;;5086580;28;20055;-77
2022/01/11 02:55:55;;;;;;;20.50;8.05;;;10.60;99.90;;;;;;5086583;28;20035;-77
2022/01/11 02:58:20;;;;;;;20.42;10.20;;;10.50;99.90;;;;;;5104847;28;20326;-76
2022/01/11 03:00:47;;;;;;;17.83;9.43;;;10.50;99.90;;;;;;5104419;28;20024;-77
2022/01/11 03:03:17;;;;;;;18.15;9.15;;;10.50;99.90;;;;;;5069420;28;20374;-76
2022/01/11 03:05:46;;;;;;;18.25;8.95;;;10.50;99.90;;;;;;5086514;28;20093;-78
2022/01/11 03:08:13;;;;;;;18.98;9.52;;;10.50;99.90;;;;;;5104234;28;20219;-76
2022/01/11 03:10:38;;;;;;;20.45;9.38;;;10.40;99.90;;;;;;5086542;28;20024;-77
2022/01/11 03:13:07;;;;;;;24.67;11.05;;;10.40;99.90;;;;;;5104409;28;20309;-77
2022/01/11 03:15:34;;;;;;;21.30;8.77;;;10.40;99.90;;;;;;5086581;28;20024;-76
2022/01/11 03:18:00;;;;;;;21.60;9.15;;;10.50;99.90;;;;;;5104405;28;20036;-75
2022/01/11 03:20:26;;;;;;;25.35;9.23;;;10.40;99.90;;;;;;5069161;28;20069;-76
2022/01/11 03:22:51;;;;;;;21.60;9.73;;;10.40;99.90;;;;;;5104379;28;20083;-76
2022/01/11 03:25:18;;;;;;;22.52;9.80;;;10.40;99.90;;;;;;5104063;28;20352;-77
2022/01/11 03:27:45;;;;;;;19.95;9.50;;;10.40;99.90;;;;;;5085942;28;20020;-77
2022/01/11 03:30:12;;;;;;;21.63;11.02;;;10.40;99.90;;;;;;5085312;28;20051;-77
2022/01/11 03:32:38;;;;;;;21.75;9.50;;;10.30;99.90;;;;;;5069270;28;20043;-77
2022/01/11 03:35:05;;;;;;;16.05;8.02;;;10.40;99.90;;;;;;5103902;28;20020;-76
2022/01/11 03:37:31;;;;;;;17.65;8.35;;;10.50;99.90;;;;;;5085568;28;20258;-75
2022/01/11 03:39:57;;;;;;;17.05;8.70;;;10.50;99.90;;;;;;5104097;28;20106;-77
2022/01/11 03:42:23;;;;;;;16.50;9.90;;;10.40;99.90;;;;;;5086314;28;20043;-77
2022/01/11 03:44:50;;;;;;;18.40;9.93;;;10.40;99.90;;;;;;5085687;28;20335;-76
2022/01/11 03:47:16;;;;;;;23.23;12.88;;;10.40;99.90;;;;;;5103801;28;20023;-76
2022/01/11 03:49:42;;;;;;;21.95;11.88;;;10.40;99.90;;;;;;5103525;28;20319;-77
2022/01/11 03:52:08;;;;;;;20.85;10.75;;;10.40;99.90;;;;;;5069297;28;20023;-76
2022/01/11 03:54:50;;;;;;;25.83;12.73;;;10.40;99.90;;;;;;5103405;28;20023;-77
2022/01/11 03:57:16;;;;;;;18.30;10.43;;;10.40;99.90;;;;;;5085817;28;20103;-76
2022/01/11 03:59:42;;;;;;;16.92;10.30;;;10.40;99.90;;;;;;5085473;28;20024;-75
2022/01/11 04:02:08;;;;;;;18.85;10.60;;;10.40;99.90;;;;;;5086015;28;20038;-75
2022/01/11 04:04:34;;;;;;;23.50;10.55;;;10.30;99.90;;;;;;5085413;28;20035;-76
2022/01/11 04:07:00;;;;;;;22.40;10.98;;;10.30;99.90;;;;;;5085458;28;20117;-78
2022/01/11 04:09:26;;;;;;;25.73;10.80;;;10.30;99.90;;;;;;5085648;28;20296;-75
2022/01/11 04:11:52;;;;;;;21.20;10.30;;;10.30;99.90;;;;;;5086456;28;20071;-76
2022/01/11 04:14:18;;;;;;;20.40;10.52;;;10.30;99.90;;;;;;5071114;28;20024;-76
2022/01/11 04:16:44;;;;;;;25.25;11.02;;;10.30;99.90;;;;;;5070917;28;20149;-76
2022/01/11 04:19:09;;;;;;;18.58;9.82;;;10.30;99.90;;;;;;5088077;28;20109;-78
2022/01/11 04:21:35;;;;;;;20.48;10.65;;;10.30;99.90;;;;;;5087468;28;20096;-77
2022/01/11 04:24:02;;;;;;;17.05;10.25;;;10.30;99.90;;;;;;5085991;28;20031;-77
2022/01/11 04:26:28;;;;;;;24.10;11.57;;;10.40;99.90;;;;;;5085854;28;20242;-76
2022/01/11 04:28:54;;;;;;;20.67;10.75;;;10.40;99.90;;;;;;5101975;28;20024;-76
2022/01/11 04:31:20;;;;;;;22.35;11.65;;;10.40;99.90;;;;;;5085524;28;20028;-76
2022/01/11 04:33:46;;;;;;;21.58;12.00;;;10.40;99.90;;;;;;5103464;28;20330;-76
2022/01/11 04:36:12;;;;;;;24.70;11.75;;;10.40;99.90;;;;;;5102939;28;20039;-75
2022/01/11 04:38:39;;;;;;;24.35;11.43;;;10.30;99.90;;;;;;5103706;28;20362;-76
2022/01/11 04:41:05;;;;;;;21.13;11.82;;;10.30;99.90;;;;;;5085551;28;20036;-77
2022/01/11 04:43:31;;;;;;;22.95;11.80;;;10.40;99.90;;;;;;5085312;28;20230;-76
2022/01/11 04:45:57;;;;;;;20.30;11.93;;;10.40;99.90;;;;;;5102918;28;20028;-75
2022/01/11 04:48:23;;;;;;;21.67;11.98;;;10.40;99.90;;;;;;5085973;28;20184;-76
2022/01/11 04:50:49;;;;;;;20.05;11.32;;;10.50;99.90;;;;;;5088982;28;20319;-77
2022/01/11 04:53:15;;;;;;;20.65;11.02;;;10.60;99.90;;;;;;5107391;28;20047;-77
2022/01/11 04:55:40;;;;;;;21.70;11.00;;;10.60;99.90;;;;;;5106673;28;20065;-76
2022/01/11 04:58:07;;;;;;;21.63;11.05;;;10.50;99.90;;;;;;5107406;28;20024;-76
2022/01/11 05:00:33;;;;;;;23.20;12.30;;;10.50;99.90;;;;;;5088787;28;20024;-75
2022/01/11 05:02:59;;;;;;;23.65;11.95;;;10.60;99.90;;;;;;5072116;28;20027;-77
2022/01/11 05:05:28;;;;;;;22.35;12.07;;;10.60;99.90;;;;;;5088760;28;20077;-77
2022/01/11 05:07:54;;;;;;;23.00;12.73;;;10.60;99.90;;;;;;5088668;28;20016;-77
2022/01/11 05:10:20;;;;;;;22.52;11.02;;;10.60;99.90;;;;;;5088894;28;20022;-76
2022/01/11 05:12:46;;;;;;;25.00;13.13;;;10.60;99.90;;;;;;5106721;28;20024;-75
2022/01/11 05:15:13;;;;;;;20.13;11.55;;;10.60;99.90;;;;;;5106527;28;20020;-77
2022/01/11 05:17:39;;;;;;;20.45;11.40;;;10.70;99.90;;;;;;5088545;28;20032;-76
2022/01/11 05:20:06;;;;;;;20.17;11.02;;;10.70;99.90;;;;;;5088844;28;20070;-77
2022/01/11 05:22:32;;;;;;;22.40;10.82;;;10.70;99.90;;;;;;5071875;28;20020;-76
2022/01/11 05:24:58;;;;;;;20.33;10.38;;;10.80;99.90;;;;;;5106532;28;20253;-76
2022/01/11 05:27:24;;;;;;;21.88;10.40;;;10.80;99.90;;;;;;5071672;28;20066;-75
2022/01/11 05:29:51;;;;;;;20.55;10.98;;;10.70;99.90;;;;;;5070374;28;20289;-77
2022/01/11 05:32:16;;;;;;;19.95;11.32;;;10.80;99.90;;;;;;5088082;28;20032;-78
2022/01/11 05:34:42;;;;;;;19.65;11.50;;;10.80;99.90;;;;;;5106365;28;20257;-77
2022/01/11 05:37:08;;;;;;;19.30;10.90;;;10.80;99.90;;;;;;5087738;28;20024;-77
2022/01/11 05:39:33;;;;;;;23.63;10.95;;;10.80;99.90;;;;;;5105999;28;20207;-75
2022/01/11 05:42:00;;;;;;;18.02;10.23;;;10.80;99.90;;;;;;5088458;28;20031;-77
2022/01/11 05:44:26;;;;;;;20.60;10.95;;;10.80;99.90;;;;;;5106208;28;20044;-76
2022/01/11 05:46:51;;;;;;;20.08;10.27;;;10.80;99.90;;;;;;5105740;28;20048;-76
2022/01/11 05:49:17;;;;;;;20.83;10.30;;;10.80;99.90;;;;;;5087938;28;20020;-76
2022/01/11 05:51:43;;;;;;;23.33;11.80;;;10.80;99.90;;;;;;5106135;28;20050;-76
2022/01/11 05:54:09;;;;;;;24.67;10.77;;;10.80;99.90;;;;;;5088120;28;20020;-76
2022/01/11 05:56:35;;;;;;;20.05;11.88;;;10.80;99.90;;;;;;5087943;28;20307;-76
2022/01/11 05:59:00;;;;;;;19.88;11.25;;;10.90;99.90;;;;;;5087823;28;20031;-76
2022/01/11 06:01:26;;;;;;;19.55;10.85;;;10.80;99.90;;;;;;5069769;28;20099;-78
2022/01/11 06:03:52;;;;;;;19.35;10.60;;;10.80;99.90;;;;;;5087666;28;20267;-77
2022/01/11 06:06:18;;;;;;;20.85;10.50;;;10.80;99.90;;;;;;5105604;28;20031;-78
2022/01/11 06:08:44;;;;;;;18.48;9.85;;;10.80;99.90;;;;;;5105691;28;20030;-78
2022/01/11 06:11:11;;;;;;;19.48;10.35;;;10.80;99.90;;;;;;5087820;28;20024;-77
2022/01/11 06:13:36;;;;;;;15.65;9.35;;;10.90;99.90;;;;;;5096526;28;20015;-76
2022/01/11 06:16:02;;;;;;;21.30;9.85;;;10.90;99.90;;;;;;5102872;28;20080;-76
2022/01/11 06:18:29;;;;;;;18.92;10.25;;;10.90;99.90;;;;;;5101605;28;20046;-78
2022/01/11 06:20:55;;;;;;;18.00;9.40;;;10.90;99.90;;;;;;5102325;28;20028;-77
2022/01/11 06:23:21;;;;;;;19.85;9.93;;;10.90;99.90;;;;;;5099714;28;20015;-77
2022/01/11 06:25:46;;;;;;;19.08;10.45;;;10.90;99.90;;;;;;5083713;28;20099;-77
2022/01/11 06:28:12;;;;;;;18.08;10.18;;;10.90;99.90;;;;;;5096054;28;20016;-77
2022/01/11 06:30:42;;;;;;;17.75;10.10;;;10.90;99.90;;;;;;5093667;28;20039;-76
2022/01/11 06:33:08;;;;;;;22.48;10.55;;;10.90;99.90;;;;;;5071085;28;20023;-76
2022/01/11 06:35:34;;;;;;;19.75;10.40;;;10.90;99.90;;;;;;5070037;28;20267;-76
2022/01/11 06:37:59;;;;;;;20.17;9.93;;;10.90;99.90;;;;;;5087003;28;20072;-76
2022/01/11 06:40:26;;;;;;;15.70;9.60;;;10.90;99.90;;;;;;5087132;28;20238;-77
2022/01/11 06:42:52;;;;;;;16.77;9.73;;;10.90;99.90;;;;;;5105173;28;20024;-78
2022/01/11 06:45:21;;;;;;;19.05;10.70;;;10.90;99.90;;;;;;5105002;28;20052;-77
2022/01/11 06:47:46;;;;;;;18.73;10.25;;;10.90;99.90;;;;;;5087208;28;20023;-78
2022/01/11 06:50:12;;;;;;;19.33;10.57;;;10.90;99.90;;;;;;5087080;28;20107;-78
2022/01/11 06:52:38;;;;;;;17.05;9.60;;;10.90;99.90;;;;;;5070386;28;20274;-75
2022/01/11 06:55:05;;;;;;;17.02;10.05;;;10.90;99.90;;;;;;5105142;28;20326;-77
2022/01/11 06:57:31;;;;;;;16.80;9.98;;;10.90;99.90;;;;;;5086203;28;20035;-77
2022/01/11 06:59:57;;;;;;;24.90;12.25;;;10.90;99.90;;;;;;5069735;28;20229;-77
2022/01/11 07:02:22;;;;;;;14.85;8.93;;;11.00;99.90;;;;;;5070043;28;20020;-76
2022/01/11 07:04:48;;;;;;;17.25;9.90;;;11.00;99.90;;;;;;5069908;28;20060;-77
2022/01/11 07:07:14;;;;;;;17.15;10.15;;;10.90;99.90;;;;;;5086163;28;20031;-76
2022/01/11 07:09:39;;;;;;;14.95;9.38;;;11.00;99.90;;;;;;5086531;28;20242;-76
2022/01/11 07:12:06;;;;;;;17.88;9.13;;;11.00;99.90;;;;;;5085934;28;20023;-76
2022/01/11 07:14:31;;;;;;;17.33;9.68;;;11.00;99.90;;;;;;5069947;28;20046;-76
2022/01/11 07:16:57;;;;;;;15.85;9.43;;;11.00;99.90;;;;;;5104611;28;20335;-75
2022/01/11 07:19:24;;;;;;;16.33;9.60;;;11.00;99.90;;;;;;5069490;28;20311;-78
2022/01/11 07:21:50;;;;;;;58.53;24.90;;;10.90;99.90;;;;;;5086716;28;20016;-77
2022/01/11 07:24:17;;;;;;;14.52;9.52;;;11.00;99.90;;;;;;5104389;28;20057;-77
2022/01/11 07:26:43;;;;;;;21.27;10.43;;;11.00;99.90;;;;;;5104501;28;20044;-76
2022/01/11 07:29:09;;;;;;;17.15;10.45;;;11.00;99.90;;;;;;5086575;28;20031;-76
2022/01/11 07:31:38;;;;;;;24.42;10.55;;;11.00;99.90;;;;;;5084304;28;20024;-75
2022/01/11 07:34:05;;;;;;;23.38;9.73;;;11.10;99.90;;;;;;5086191;28;20035;-78
2022/01/11 07:36:31;;;;;;;20.23;9.93;;;11.10;99.90;;;;;;5085441;28;20068;-78
2022/01/11 07:38:58;;;;;;;19.90;10.85;;;11.10;99.90;;;;;;5086092;28;20020;-78
2022/01/11 07:41:23;;;;;;;25.05;10.65;;;11.10;99.90;;;;;;5085873;28;20098;-79
2022/01/11 07:43:49;;;;;;;22.10;10.18;;;11.10;99.90;;;;;;5085642;28;20043;-77
2022/01/11 07:46:15;;;;;;;17.80;10.80;;;11.20;99.90;;;;;;5052450;28;20028;-78
2022/01/11 07:48:40;;;;;;;19.88;10.45;;;11.10;99.90;;;;;;5085791;28;20047;-76
2022/01/11 07:51:07;;;;;;;25.23;10.07;;;11.20;99.90;;;;;;5086160;28;20027;-77
2022/01/11 07:53:32;;;;;;;19.20;11.05;;;11.10;99.90;;;;;;5069180;28;20036;-78
2022/01/11 07:55:59;;;;;;;20.95;10.45;;;11.10;99.90;;;;;;5085983;28;20061;-75
2022/01/11 07:58:26;;;;;;;19.77;10.07;;;11.10;99.90;;;;;;5086097;28;20024;-78
2022/01/11 08:00:52;;;;;;;19.35;9.90;;;11.20;99.90;;;;;;5103267;28;20065;-78
2022/01/11 08:03:18;;;;;;;19.08;9.73;;;11.20;99.90;;;;;;5065245;28;20060;-78
2022/01/11 08:05:44;;;;;;;17.35;9.18;;;11.30;99.90;;;;;;5085580;28;20039;-78
2022/01/11 08:08:09;;;;;;;17.48;9.68;;;11.20;99.90;;;;;;5085078;28;20303;-81
2022/01/11 08:10:35;;;;;;;17.27;8.98;;;11.30;99.90;;;;;;5068582;28;20050;-78
2022/01/11 08:13:05;;;;;;;18.63;9.32;;;11.30;99.90;;;;;;5067612;28;20204;-75
2022/01/11 08:15:32;;;;;;;17.48;9.02;;;11.30;99.90;;;;;;5099524;28;20203;-76
2022/01/11 08:17:58;;;;;;;15.95;8.68;;;11.40;99.90;;;;;;5090509;28;20108;-81
2022/01/11 08:20:24;;;;;;;21.17;9.18;;;11.40;99.90;;;;;;5079556;28;20024;-84
2022/01/11 08:22:51;;;;;;;16.10;9.18;;;11.40;99.90;;;;;;5083743;28;20012;-76
2022/01/11 08:25:17;;;;;;;17.85;9.60;;;11.30;99.90;;;;;;5105805;28;20267;-80
2022/01/11 08:27:42;;;;;;;23.33;9.75;;;11.40;99.90;;;;;;5088242;28;20028;-78
2022/01/11 08:30:09;;;;;;;25.90;10.18;;;11.40;99.90;;;;;;5071808;28;20016;-77
2022/01/11 08:32:36;;;;;;;40.97;10.13;;;11.40;99.90;;;;;;5085296;28;20222;-83
2022/01/11 08:35:03;;;;;;;18.80;9.63;;;11.40;99.90;;;;;;5106490;28;20011;-83
2022/01/11 08:37:29;;;;;;;32.72;12.07;;;11.40;99.90;;;;;;5087223;28;20032;-75
2022/01/11 08:39:54;;;;;;;30.02;12.15;;;11.40;99.90;;;;;;5069459;28;20024;-84
2022/01/11 08:42:20;;;;;;;28.25;11.32;;;11.40;99.90;;;;;;5073043;28;20035;-83
2022/01/11 08:44:47;;;;;;;22.17;10.90;;;11.50;99.90;;;;;;5087416;28;20070;-78
2022/01/11 08:47:15;;;;;;;20.48;9.93;;;11.50;99.90;;;;;;5071842;28;20023;-75
2022/01/11 08:49:41;;;;;;;22.85;9.98;;;11.60;99.90;;;;;;5088328;28;20016;-81
2022/01/11 08:52:08;;;;;;;22.30;10.15;;;11.70;99.90;;;;;;5106477;28;20012;-79
2022/01/11 08:54:34;;;;;;;20.38;10.63;;;11.70;99.90;;;;;;5088431;28;20023;-81
2022/01/11 08:57:00;;;;;;;17.08;9.57;;;11.70;99.90;;;;;;5106425;28;20079;-79
2022/01/11 08:59:26;;;;;;;16.42;10.10;;;11.80;99.90;;;;;;5071091;28;20019;-76
2022/01/11 09:01:55;;;;;;;16.23;9.57;;;11.90;99.90;;;;;;5105958;28;20024;-81
2022/01/11 09:04:22;;;;;;;14.43;9.50;;;12.00;99.90;;;;;;5071246;28;20237;-76
2022/01/11 09:06:49;;;;;;;14.88;8.95;;;12.10;99.90;;;;;;5105067;28;20028;-76
2022/01/11 09:09:16;;;;;;;16.40;9.52;;;12.10;99.90;;;;;;5079605;28;20325;-77
2022/01/11 09:11:43;;;;;;;15.65;9.93;;;12.10;99.90;;;;;;5108486;28;20019;-78
2022/01/11 09:14:09;;;;;;;13.30;8.63;;;12.10;99.90;;;;;;5111651;28;20078;-78
2022/01/11 09:16:34;;;;;;;14.32;8.32;;;12.20;99.90;;;;;;5105881;28;20323;-79
2022/01/11 09:19:00;;;;;;;16.00;8.95;;;12.30;99.90;;;;;;5088012;28;20015;-79
2022/01/11 09:21:26;;;;;;;13.85;7.90;;;12.30;99.90;;;;;;5106188;28;20061;-78
2022/01/11 09:23:52;;;;;;;10.63;6.95;;;12.40;99.90;;;;;;5071152;28;20259;-80
2022/01/11 09:26:19;;;;;;;14.75;7.65;;;12.40;99.90;;;;;;5087993;28;20035;-80
2022/01/11 09:28:45;;;;;;;14.40;7.15;;;12.40;99.90;;;;;;5087764;28;20210;-81
2022/01/11 09:31:14;;;;;;;14.55;7.85;;;12.40;99.90;;;;;;5105825;28;20337;-83
2022/01/11 09:33:40;;;;;;;14.18;7.68;;;12.40;99.90;;;;;;5086020;28;20024;-82
2022/01/11 09:36:07;;;;;;;15.32;7.85;;;12.40;99.90;;;;;;5104847;28;20055;-76
2022/01/11 09:38:33;;;;;;;13.93;8.65;;;12.40;99.90;;;;;;5071066;28;20023;-76
2022/01/11 09:40:59;;;;;;;16.25;8.77;;;12.30;99.90;;;;;;5087758;28;20028;-81
2022/01/11 09:43:26;;;;;;;13.13;7.70;;;12.40;99.90;;;;;;5105162;28;20349;-81
2022/01/11 09:45:53;;;;;;;11.48;7.72;;;12.30;99.90;;;;;;5104891;28;20020;-77
2022/01/11 09:48:25;;;;;;;10.65;5.85;;;12.20;99.90;;;;;;5070959;28;20089;-80
2022/01/11 09:50:52;;;;;;;9.35;5.28;;;12.10;99.90;;;;;;5086970;28;20225;-79
2022/01/11 09:53:18;;;;;;;9.32;6.20;;;11.90;99.90;;;;;;5088341;28;20024;-83
2022/01/11 09:55:44;;;;;;;10.25;7.82;;;11.60;99.90;;;;;;5087626;28;20125;-83
2022/01/11 09:58:11;;;;;;;17.98;10.05;;;11.50;99.90;;;;;;5088287;28;20031;-85
2022/01/11 10:00:38;;;;;;;13.43;8.60;;;11.40;99.90;;;;;;5087539;28;20031;-80
2022/01/11 10:03:04;;;;;;;9.25;5.55;;;11.40;99.90;;;;;;5087511;28;20028;-83
2022/01/11 10:05:31;;;;;;;10.27;6.15;;;11.30;99.90;;;;;;5105900;28;20028;-82
2022/01/11 10:07:58;;;;;;;10.93;5.93;;;11.30;99.90;;;;;;5095853;28;20022;-81
2022/01/11 10:10:26;;;;;;;10.90;6.13;;;11.30;99.90;;;;;;5136857;28;20023;-80
2022/01/11 10:12:55;;;;;;;7.30;4.75;;;11.40;99.90;;;;;;5098074;28;20016;-79
2022/01/11 10:15:31;;;;;;;14.25;7.00;;;11.50;99.90;;;;;;5067742;28;20036;-82
2022/01/11 10:17:57;;;;;;;10.18;6.75;;;11.50;99.90;;;;;;5101612;28;20032;-81
2022/01/11 10:20:25;;;;;;;12.93;6.45;;;11.60;99.90;;;;;;5100990;28;20031;-83
2022/01/11 10:23:07;;;;;;;13.70;8.20;;;11.70;99.90;;;;;;5084350;28;20023;-82
2022/01/11 10:25:44;;;;;;;12.93;7.22;;;11.70;99.90;;;;;;5077774;28;20070;-81
2022/01/11 10:28:09;;;;;;;12.65;6.60;;;11.70;99.90;;;;;;5087609;28;20031;-82
2022/01/11 10:30:36;;;;;;;9.52;6.75;;;11.90;99.90;;;;;;5070077;28;20307;-78
2022/01/11 10:33:06;;;;;;;10.10;6.90;;;12.00;99.90;;;;;;5104914;28;20062;-79
2022/01/11 10:35:42;;;;;;;8.88;6.20;;;12.10;99.90;;;;;;5102953;28;20382;-77
2022/01/11 10:38:10;;;;;;;8.07;5.82;;;12.20;99.90;;;;;;5085651;28;20085;-80
2022/01/11 10:40:43;;;;;;;6.65;5.50;;;12.30;99.90;;;;;;5084334;28;20024;-80
2022/01/11 10:43:11;;;;;;;8.93;5.57;;;12.40;99.90;;;;;;5087049;28;20031;-80
2022/01/11 10:45:41;;;;;;;4.90;4.20;;;12.40;99.90;;;;;;5083675;28;20335;-82
2022/01/11 10:48:10;;;;;;;8.40;5.25;;;12.40;99.90;;;;;;5085571;28;20020;-79
2022/01/11 10:50:39;;;;;;;8.98;5.63;;;12.30;99.90;;;;;;5086770;28;20015;-80
2022/01/11 10:53:11;;;;;;;8.45;5.70;;;12.20;99.90;;;;;;5086536;28;20063;-80
2022/01/11 10:55:38;;;;;;;9.60;6.90;;;12.30;99.90;;;;;;5086463;28;20024;-80
2022/01/11 10:58:06;;;;;;;9.57;7.72;;;12.30;99.90;;;;;;5068849;28;20032;-81
2022/01/11 11:00:39;;;;;;;15.40;10.60;;;12.20;99.90;;;;;;5068528;28;20016;-79
2022/01/11 11:03:15;;;;;;;18.70;11.90;;;12.20;99.90;;;;;;5087374;28;20071;-77
2022/01/11 11:05:51;;;;;;;16.27;10.50;;;12.10;99.90;;;;;;5075107;28;20042;-78
2022/01/11 11:08:23;;;;;;;6.18;4.72;;;12.00;99.90;;;;;;5068927;28;20028;-77
2022/01/11 11:11:03;;;;;;;8.65;4.57;;;11.70;99.90;;;;;;5063064;28;20024;-83
2022/01/11 11:13:36;;;;;;;8.93;4.28;;;11.80;99.90;;;;;;5069232;28;20023;-83
2022/01/11 11:16:25;;;;;;;4.30;2.92;;;11.80;99.90;;;;;;5069532;28;20052;-82
2022/01/11 11:19:02;;;;;;;4.75;2.90;;;11.90;99.90;;;;;;5072986;28;20024;-83
2022/01/11 11:21:35;;;;;;;4.32;1.70;;;11.80;99.90;;;;;;5104021;28;20234;-77
2022/01/11 11:24:06;;;;;;;2.55;1.38;;;11.80;99.90;;;;;;5086898;28;20024;-80
2022/01/11 11:26:37;;;;;;;5.07;1.23;;;11.70;99.90;;;;;;5104053;28;20019;-80
2022/01/11 11:29:04;;;;;;;5.97;1.77;;;11.60;99.90;;;;;;5069728;28;20028;-83
2022/01/11 11:31:30;;;;;;;2.13;1.48;;;11.60;99.90;;;;;;5085847;28;20040;-79
2022/01/11 11:33:56;;;;;;;3.10;1.30;;;11.70;99.90;;;;;;5102894;28;20065;-80
2022/01/11 11:36:22;;;;;;;3.00;1.60;;;11.70;99.90;;;;;;5084210;28;20095;-82
2022/01/11 11:38:55;;;;;;;3.30;1.40;;;11.60;99.90;;;;;;5085866;28;20184;-83
2022/01/11 11:41:23;;;;;;;2.60;1.20;;;11.60;99.90;;;;;;5085938;28;20192;-79
2022/01/11 11:44:10;;;;;;;2.28;1.33;;;11.70;99.90;;;;;;5085662;28;20074;-79
2022/01/11 11:47:00;;;;;;;1.70;1.60;;;11.70;99.90;;;;;;5070018;28;20164;-86
2022/01/11 11:50:06;;;;;;;2.83;1.60;;;11.70;99.90;;;;;;5086253;28;20079;-83
2022/01/11 11:52:44;;;;;;;2.20;1.80;;;11.60;99.90;;;;;;5085414;28;20023;-82
2022/01/11 11:55:23;;;;;;;2.45;1.75;;;11.60;99.90;;;;;;5103375;28;20039;-80
2022/01/11 11:57:53;;;;;;;5.28;2.22;;;11.60;99.90;;;;;;5084893;28;20348;-79
2022/01/11 12:00:30;;;;;;;4.38;2.10;;;11.60;99.90;;;;;;5068631;28;20065;-76
2022/01/11 12:03:00;;;;;;;3.63;2.33;;;11.60;99.90;;;;;;5082885;28;20024;-78
2022/01/11 12:05:45;;;;;;;2.92;2.40;;;11.60;99.90;;;;;;5085602;28;20091;-78
2022/01/11 12:08:38;;;;;;;3.38;2.40;;;11.60;99.90;;;;;;5103088;28;20016;-81
2022/01/11 12:11:08;;;;;;;4.90;2.70;;;11.60;99.90;;;;;;5068471;28;20031;-78
2022/01/11 12:13:55;;;;;;;6.30;2.75;;;11.70;99.90;;;;;;5069152;28;20210;-79
2022/01/11 12:16:39;;;;;;;4.82;2.90;;;11.70;99.90;;;;;;5088353;28;20028;-77
2022/01/11 12:19:09;;;;;;;3.40;3.10;;;11.60;99.90;;;;;;5085613;28;20257;-80
2022/01/11 12:21:41;;;;;;;5.78;3.45;;;11.70;99.90;;;;;;5103374;28;20012;-76
2022/01/11 12:24:06;;;;;;;5.63;3.60;;;11.60;99.90;;;;;;5085071;28;20024;-79
2022/01/11 12:26:35;;;;;;;5.82;3.42;;;11.60;99.90;;;;;;5085233;28;20099;-73
2022/01/11 12:29:22;;;;;;;7.63;3.83;;;11.60;99.90;;;;;;5085007;28;20307;-77
2022/01/11 12:31:54;;;;;;;5.13;3.70;;;11.60;99.90;;;;;;5070969;28;20361;-78
2022/01/11 12:34:51;;;;;;;6.22;4.00;;;11.50;99.90;;;;;;5085219;28;20008;-77
2022/01/11 12:37:32;;;;;;;5.75;4.03;;;11.60;99.90;;;;;;5070912;28;20107;-81
2022/01/11 12:40:20;;;;;;;9.50;4.63;;;11.70;99.90;;;;;;5068546;28;20223;-75